Airfield :
LOGIN :

Register | Disclaimer

   EN    FR    IT 

 










Legend :    VFR   Marginal VFR   IFR   Intensive IFR   Very Intensive IFR
Visi :
Ceiling :
>= 8 km
>= 3000ft
5 to 8 km
1000 to 3000 ft
1500m to 5 km
500 to 1000 ft
800 to 1500m
200 to 500 ft
< 800m
< 200 ft
Symbols :   Thunderstorms  Fog  Heavy snow  Heavy precipitations  Wind > 20 kt
SIGMETs :     Misc.  Thunderstorms  Icing  Turbulence  Mountain Waves  Volcanic Ashes






- Airport Elevation : 13 ft
- IATA code : SNR


LFRZ - St-Nazaire

CURRENT METAR :
  • 071530Z AUTO 22011KT CAVOK 13/08 Q1018 BECMG 16010KT

EXPIRED METARs :
  • 071500Z AUTO 21012KT CAVOK 13/07 Q1018 NOSIG
  • 071430Z AUTO 21012KT CAVOK 13/06 Q1018 NOSIG
  • 071400Z AUTO 21012KT CAVOK 13/06 Q1018 NOSIG
  • 071330Z AUTO 21012KT CAVOK 14/07 Q1018 NOSIG
  • 071300Z AUTO 22009KT 9999 FEW039 BKN120 14/05 Q1018 NOSIG

TAF TAF LFRZ
Valid from the 07 at 12:00 until the 08 at 12:00 UTC


071100Z 0712/0812 VRB04KT CAVOK
BECMG 0713/0715 24010KT
TEMPO 0716/0720 -RA NSC
BECMG 0717/0719 16010KT
BECMG 0720/0722 BKN014
TEMPO 0722/0806 2000 DZRA OVC002
PROB30
TEMPO 0804/0809 22015G25KT
BECMG 0809/0811 SCT025



MET'MAP, your aeronautical weather chart ! - Copyright ORBIFLY December 2007 - Disclaimer

ORBIFLY MET'MAP TEAM :

Programming & Development : Alexandra Zaïnal
Concept & original design : Baudouin d'Aumeries
Assistance for programming : Marc-Olivier Méhu
Technical & hardware support : Manuel Goepfert

Contact : metmap@orbifly.com




SOURCES & CREDITS :

   NOAA